Time;durP1;ratioP1;P1;durP2;ratioP2;P2;SDS_P1;SDS_P2;PMS_P1;PMS_P2;Temp;Humidity;BMP_temperature;BMP_pressure;BME280_temperature;BME280_humidity;BME280_pressure;Samples;Min_cycle;Max_cycle;Signal;HPM_P1;HPM_P2
2023/12/25 00:00:10;;;;;;;8.68;2.42;;;12.60;99.90;;;;;;4983794;28;20218;-84
2023/12/25 00:02:37;;;;;;;7.43;2.67;;;12.60;99.90;;;;;;4987090;28;20278;-84
2023/12/25 00:05:04;;;;;;;14.40;2.80;;;12.60;99.90;;;;;;4986316;28;20266;-83
2023/12/25 00:07:31;;;;;;;4.47;1.95;;;12.50;99.90;;;;;;4980741;28;20206;-83
2023/12/25 00:09:58;;;;;;;13.18;2.40;;;12.50;99.90;;;;;;4994618;28;20226;-83
2023/12/25 00:12:25;;;;;;;6.13;3.70;;;12.50;99.90;;;;;;4996529;28;20187;-82
2023/12/25 00:14:53;;;;;;;5.05;2.15;;;12.50;99.90;;;;;;4993025;28;20271;-84
2023/12/25 00:17:30;;;;;;;9.95;2.30;;;12.50;99.90;;;;;;4987601;28;20203;-83
2023/12/25 00:19:57;;;;;;;10.52;2.05;;;12.50;99.90;;;;;;4990733;28;20223;-83
2023/12/25 00:22:25;;;;;;;10.27;2.58;;;12.60;99.90;;;;;;4996048;28;20199;-82
2023/12/25 00:24:57;;;;;;;10.25;2.45;;;12.60;99.90;;;;;;4996786;28;20216;-83
2023/12/25 00:27:24;;;;;;;7.20;2.40;;;12.60;99.90;;;;;;4986326;28;20199;-83
2023/12/25 00:29:53;;;;;;;9.25;2.17;;;12.60;99.90;;;;;;4988113;28;20771;-83
2023/12/25 00:32:47;;;;;;;8.68;2.45;;;12.60;99.90;;;;;;4988493;28;20203;-84
2023/12/25 00:35:19;;;;;;;7.57;2.65;;;12.60;99.90;;;;;;4984845;28;20301;-83
2023/12/25 00:37:46;;;;;;;11.32;3.97;;;12.60;99.90;;;;;;4989792;28;20206;-83
2023/12/25 00:40:13;;;;;;;10.45;3.55;;;12.60;99.90;;;;;;4987592;28;20218;-83
2023/12/25 00:42:46;;;;;;;3.90;1.75;;;12.60;99.90;;;;;;4993405;28;20226;-84
2023/12/25 00:45:17;;;;;;;6.15;1.73;;;12.60;99.90;;;;;;4984066;28;20215;-83
2023/12/25 00:47:48;;;;;;;4.95;2.10;;;12.70;99.90;;;;;;4988637;28;20193;-83
2023/12/25 00:50:15;;;;;;;12.75;3.58;;;12.70;99.90;;;;;;4992361;28;20210;-83
2023/12/25 00:52:42;;;;;;;7.00;2.08;;;12.70;99.90;;;;;;4999487;28;20198;-83
2023/12/25 00:55:09;;;;;;;13.35;2.58;;;12.60;99.90;;;;;;4982297;28;20207;-83
2023/12/25 00:57:36;;;;;;;7.28;2.30;;;12.70;99.90;;;;;;4983579;28;20212;-82
2023/12/25 01:00:22;;;;;;;5.35;1.95;;;12.70;99.90;;;;;;4982542;28;20285;-83
2023/12/25 01:02:57;;;;;;;7.70;3.15;;;12.70;99.90;;;;;;4985913;28;20241;-82
2023/12/25 01:05:29;;;;;;;6.18;2.58;;;12.60;99.90;;;;;;4985997;28;20634;-83
2023/12/25 01:07:56;;;;;;;8.10;1.95;;;12.60;99.90;;;;;;4984045;28;20257;-82
2023/12/25 01:10:28;;;;;;;6.80;2.40;;;12.60;99.90;;;;;;4982751;28;20258;-82
2023/12/25 01:13:00;;;;;;;5.20;2.13;;;12.70;99.90;;;;;;4985913;28;20214;-83
2023/12/25 01:15:27;;;;;;;2.67;1.58;;;12.70;99.90;;;;;;4980824;28;20214;-83
2023/12/25 01:17:55;;;;;;;7.35;2.92;;;12.60;99.90;;;;;;4994507;28;20209;-83
2023/12/25 01:23:13;;;;;;;6.78;2.10;;;12.50;99.90;;;;;;4974696;28;20591;-83
2023/12/25 01:25:40;;;;;;;10.40;2.67;;;12.60;99.90;;;;;;4984199;28;20206;-83
2023/12/25 01:28:07;;;;;;;7.25;2.72;;;12.50;99.90;;;;;;4992373;28;20203;-83
2023/12/25 01:30:34;;;;;;;5.40;2.10;;;12.50;99.90;;;;;;4992465;28;20286;-83
2023/12/25 01:33:03;;;;;;;5.80;1.80;;;12.50;99.90;;;;;;4981382;28;20222;-83
2023/12/25 01:35:30;;;;;;;7.65;2.30;;;12.60;99.90;;;;;;4986941;28;20206;-85
2023/12/25 01:37:57;;;;;;;4.93;1.90;;;12.60;99.90;;;;;;4987973;28;20209;-83
2023/12/25 01:40:24;;;;;;;9.38;2.45;;;12.60;99.90;;;;;;4987213;28;20210;-83
2023/12/25 01:42:51;;;;;;;4.75;2.40;;;12.60;99.90;;;;;;4987269;28;20262;-82
2023/12/25 01:45:18;;;;;;;5.15;1.90;;;12.70;99.90;;;;;;4986284;28;20280;-83
2023/12/25 01:47:45;;;;;;;6.88;2.13;;;12.60;99.90;;;;;;4984686;28;20237;-83
2023/12/25 01:50:14;;;;;;;5.25;1.50;;;12.60;99.90;;;;;;4988033;28;20249;-83
2023/12/25 01:52:46;;;;;;;8.23;1.77;;;12.60;99.90;;;;;;4987798;28;20205;-83
2023/12/25 01:55:13;;;;;;;10.68;2.47;;;12.60;99.90;;;;;;4987125;28;20199;-83
2023/12/25 01:57:53;;;;;;;5.07;2.80;;;12.60;99.90;;;;;;4982264;28;20211;-84
2023/12/25 02:03:07;;;;;;;7.65;2.45;;;12.60;99.90;;;;;;4976791;28;20206;-83
2023/12/25 02:05:43;;;;;;;10.90;2.03;;;12.60;99.90;;;;;;4991884;28;20206;-83
2023/12/25 02:08:23;;;;;;;10.90;3.42;;;12.60;99.90;;;;;;4988969;28;20231;-83
2023/12/25 02:10:50;;;;;;;4.57;1.92;;;12.60;99.90;;;;;;4986963;28;20237;-83
2023/12/25 02:13:17;;;;;;;8.15;2.05;;;12.70;99.90;;;;;;4984891;28;20239;-83
2023/12/25 02:15:50;;;;;;;8.57;2.22;;;12.80;99.90;;;;;;4980607;28;20270;-84
2023/12/25 02:18:27;;;;;;;3.20;2.50;;;12.70;99.90;;;;;;4980667;28;20200;-82
2023/12/25 02:21:16;;;;;;;4.10;2.03;;;12.70;99.90;;;;;;4982847;28;20258;-83
2023/12/25 02:24:15;;;;;;;6.55;2.42;;;12.70;99.90;;;;;;4989462;28;20183;-82
2023/12/25 02:26:46;;;;;;;6.15;2.28;;;12.70;99.90;;;;;;4990840;28;20221;-82
2023/12/25 02:29:23;;;;;;;9.05;2.65;;;12.70;99.90;;;;;;4993598;28;20218;-83
2023/12/25 02:31:54;;;;;;;7.53;1.60;;;12.60;99.90;;;;;;4989315;28;20733;-82
2023/12/25 02:34:32;;;;;;;7.57;1.75;;;12.70;99.90;;;;;;4983343;28;20229;-83
2023/12/25 02:37:03;;;;;;;6.43;2.00;;;12.70;99.90;;;;;;4985998;28;20218;-82
2023/12/25 02:39:42;;;;;;;5.57;1.70;;;12.80;99.90;;;;;;4983748;28;20304;-83
2023/12/25 02:42:18;;;;;;;5.53;2.20;;;12.70;99.90;;;;;;4983904;28;20281;-83
2023/12/25 02:44:54;;;;;;;7.55;2.05;;;12.70;99.90;;;;;;4974944;28;20199;-84
2023/12/25 02:47:28;;;;;;;5.75;2.33;;;12.70;99.90;;;;;;4981926;28;20210;-83
2023/12/25 02:49:56;;;;;;;9.60;2.78;;;12.70;99.90;;;;;;4981389;28;20322;-83
2023/12/25 02:52:27;;;;;;;5.38;1.85;;;12.70;99.90;;;;;;4976881;28;20266;-83
2023/12/25 02:54:56;;;;;;;8.30;2.13;;;12.70;99.90;;;;;;4985102;28;20257;-83
2023/12/25 02:57:34;;;;;;;3.40;1.65;;;12.70;99.90;;;;;;4982935;28;20203;-82
2023/12/25 03:00:13;;;;;;;3.28;1.55;;;12.70;99.90;;;;;;4987165;28;20245;-83
2023/12/25 03:02:41;;;;;;;6.07;2.10;;;12.70;99.90;;;;;;4989939;28;20218;-82
2023/12/25 03:05:15;;;;;;;8.07;2.03;;;12.70;99.90;;;;;;4991875;28;20209;-83
2023/12/25 03:07:55;;;;;;;3.25;1.70;;;12.60;99.90;;;;;;4983331;28;20207;-83
2023/12/25 03:10:24;;;;;;;4.80;1.67;;;12.60;99.90;;;;;;4983039;28;20712;-84
2023/12/25 03:12:57;;;;;;;6.13;1.67;;;12.60;99.90;;;;;;4988837;28;20211;-82
2023/12/25 03:15:33;;;;;;;5.38;1.95;;;12.60;99.90;;;;;;4979763;28;20551;-83
2023/12/25 03:18:04;;;;;;;4.22;1.45;;;12.60;99.90;;;;;;4990838;28;20214;-82
2023/12/25 03:20:36;;;;;;;7.18;1.98;;;12.50;99.90;;;;;;4988300;28;20242;-82
2023/12/25 03:23:24;;;;;;;5.32;1.42;;;12.50;99.90;;;;;;4985469;28;20198;-83
2023/12/25 03:25:55;;;;;;;7.78;1.75;;;12.50;99.90;;;;;;4981747;28;20214;-83
2023/12/25 03:28:31;;;;;;;4.50;1.73;;;12.40;99.90;;;;;;4994452;28;20215;-82
2023/12/25 03:31:13;;;;;;;8.00;1.77;;;12.40;99.90;;;;;;4999628;28;20213;-82
2023/12/25 03:33:46;;;;;;;4.75;1.50;;;12.40;99.90;;;;;;4998561;28;20285;-83
2023/12/25 03:39:05;;;;;;;10.07;2.42;;;12.40;99.90;;;;;;4988464;28;20202;-83
2023/12/25 03:41:36;;;;;;;3.20;1.40;;;12.40;99.90;;;;;;4993886;28;20203;-82
2023/12/25 03:44:06;;;;;;;4.35;2.08;;;12.40;99.90;;;;;;4994023;28;20206;-83
2023/12/25 03:46:41;;;;;;;6.28;2.20;;;12.30;99.90;;;;;;4990800;28;20191;-83
2023/12/25 03:49:15;;;;;;;5.82;1.73;;;12.30;99.90;;;;;;4975086;28;20217;-83
2023/12/25 03:51:44;;;;;;;3.58;1.73;;;12.30;99.90;;;;;;4974972;28;20211;-82
2023/12/25 03:54:14;;;;;;;6.93;2.10;;;12.30;99.90;;;;;;4969361;28;20223;-83
2023/12/25 03:56:48;;;;;;;6.88;1.70;;;12.30;99.90;;;;;;4983566;28;20210;-83
2023/12/25 03:59:18;;;;;;;7.03;1.90;;;12.30;99.90;;;;;;4980262;28;20261;-82
2023/12/25 04:01:47;;;;;;;9.25;2.88;;;12.30;99.90;;;;;;4988916;28;20209;-84
2023/12/25 04:04:19;;;;;;;4.57;2.00;;;12.20;99.90;;;;;;4995636;28;20242;-84
2023/12/25 04:06:52;;;;;;;6.90;2.92;;;12.20;99.90;;;;;;4991124;28;20219;-84
2023/12/25 04:09:22;;;;;;;6.80;2.30;;;12.00;99.90;;;;;;4988358;28;20279;-84
2023/12/25 04:12:02;;;;;;;4.13;1.70;;;12.20;99.90;;;;;;4984310;28;20261;-82
2023/12/25 04:14:33;;;;;;;6.28;2.55;;;12.20;99.90;;;;;;4996236;28;20226;-83
2023/12/25 04:17:03;;;;;;;8.77;1.95;;;12.20;99.90;;;;;;4989854;28;20211;-83
2023/12/25 04:19:46;;;;;;;5.13;1.92;;;12.10;99.90;;;;;;4979043;28;20247;-83
2023/12/25 04:22:15;;;;;;;8.85;2.55;;;12.20;99.90;;;;;;4994202;28;20221;-82
2023/12/25 04:24:47;;;;;;;7.18;2.00;;;12.10;99.90;;;;;;4995140;28;20205;-83
2023/12/25 04:27:20;;;;;;;10.52;2.10;;;12.10;99.90;;;;;;4994451;28;20225;-83
2023/12/25 04:29:55;;;;;;;14.93;2.85;;;11.90;99.90;;;;;;5007188;28;20229;-82
2023/12/25 04:32:25;;;;;;;8.68;2.17;;;11.90;99.90;;;;;;5008979;28;20190;-82
2023/12/25 04:34:52;;;;;;;6.75;1.75;;;11.70;99.90;;;;;;4995276;28;20286;-82
2023/12/25 04:37:28;;;;;;;9.43;1.70;;;11.50;99.90;;;;;;4984627;28;20207;-84
2023/12/25 04:39:58;;;;;;;5.07;1.88;;;11.30;99.90;;;;;;4989333;28;20237;-84
2023/12/25 04:42:35;;;;;;;6.50;1.40;;;11.20;99.90;;;;;;4987091;28;20207;-82
2023/12/25 04:45:08;;;;;;;5.22;2.22;;;11.10;99.90;;;;;;4987780;28;20563;-83
2023/12/25 04:47:35;;;;;;;6.80;1.85;;;11.00;99.90;;;;;;4985444;28;20241;-83
2023/12/25 04:50:02;;;;;;;4.53;1.63;;;11.00;99.90;;;;;;4984692;28;20236;-83
2023/12/25 04:52:29;;;;;;;3.38;1.80;;;11.00;99.90;;;;;;4991624;28;20203;-83
2023/12/25 04:55:01;;;;;;;4.30;1.58;;;11.10;99.90;;;;;;4984938;28;20262;-82
2023/12/25 04:57:28;;;;;;;6.57;1.60;;;11.00;99.90;;;;;;4985808;28;20198;-82
2023/12/25 04:59:55;;;;;;;6.18;1.92;;;11.00;99.90;;;;;;4985623;28;20238;-82
2023/12/25 05:02:24;;;;;;;5.20;1.50;;;10.90;99.90;;;;;;4986419;28;20214;-82
2023/12/25 05:04:51;;;;;;;7.35;2.63;;;10.80;99.90;;;;;;4985254;28;20308;-82
2023/12/25 05:07:24;;;;;;;8.48;1.63;;;10.60;99.90;;;;;;4983892;28;20202;-83
2023/12/25 05:09:51;;;;;;;4.88;1.58;;;10.60;99.90;;;;;;4985764;28;20238;-83
2023/12/25 05:12:18;;;;;;;15.98;2.65;;;10.50;99.90;;;;;;4987512;28;20202;-82
2023/12/25 05:14:47;;;;;;;13.70;2.95;;;10.50;99.90;;;;;;4989547;28;20230;-82
2023/12/25 05:17:17;;;;;;;10.52;3.20;;;10.50;99.90;;;;;;4994577;28;20266;-83
2023/12/25 05:19:46;;;;;;;3.90;1.75;;;10.50;99.90;;;;;;4987319;28;20227;-83
2023/12/25 05:22:17;;;;;;;11.02;2.63;;;10.40;99.90;;;;;;4985754;28;20234;-83
2023/12/25 05:24:47;;;;;;;7.63;3.17;;;10.50;99.90;;;;;;4985614;28;20206;-83
2023/12/25 05:27:14;;;;;;;8.05;2.80;;;10.50;99.90;;;;;;4988145;28;20238;-83
2023/12/25 05:29:45;;;;;;;13.18;3.00;;;10.50;99.90;;;;;;4985932;28;20285;-83
2023/12/25 05:32:12;;;;;;;4.90;1.30;;;10.60;99.90;;;;;;4982436;28;20203;-83
2023/12/25 05:34:39;;;;;;;9.10;1.88;;;10.70;99.90;;;;;;4985225;28;20257;-83
2023/12/25 05:37:10;;;;;;;4.32;1.70;;;10.70;99.90;;;;;;4986414;28;20206;-82
2023/12/25 05:39:44;;;;;;;13.77;2.72;;;10.70;99.90;;;;;;4992046;28;20257;-82
2023/12/25 05:42:14;;;;;;;19.92;2.75;;;10.80;99.90;;;;;;4986345;28;20211;-82
2023/12/25 05:44:45;;;;;;;8.20;1.90;;;10.90;99.90;;;;;;4987606;28;20215;-83
2023/12/25 05:47:14;;;;;;;5.50;1.67;;;10.90;99.90;;;;;;4991707;28;20194;-83
2023/12/25 05:49:41;;;;;;;6.90;1.60;;;10.90;99.90;;;;;;4990472;28;20223;-83
2023/12/25 05:52:16;;;;;;;7.20;2.03;;;11.00;99.90;;;;;;4998407;28;20202;-84
2023/12/25 05:54:48;;;;;;;8.85;2.00;;;11.00;99.90;;;;;;5012265;28;20214;-84
2023/12/25 05:57:15;;;;;;;6.82;2.30;;;11.10;99.90;;;;;;4999215;28;20187;-83
2023/12/25 05:59:45;;;;;;;5.63;2.00;;;11.10;99.90;;;;;;4999008;28;20226;-83
2023/12/25 06:02:18;;;;;;;9.05;2.10;;;11.10;99.90;;;;;;4993587;28;20199;-82
2023/12/25 06:04:46;;;;;;;7.68;1.95;;;11.10;99.90;;;;;;4991552;28;20210;-83
2023/12/25 06:07:21;;;;;;;8.82;3.17;;;11.10;99.90;;;;;;4992902;28;20205;-82
2023/12/25 06:09:49;;;;;;;5.63;2.30;;;11.10;99.90;;;;;;4987646;28;20246;-83
2023/12/25 06:12:16;;;;;;;8.70;1.80;;;11.20;99.90;;;;;;4990047;28;20210;-83
2023/12/25 06:14:44;;;;;;;7.10;3.10;;;11.00;99.90;;;;;;4983849;28;20219;-83
2023/12/25 06:17:12;;;;;;;8.30;1.90;;;11.30;99.90;;;;;;4985043;28;20281;-82
2023/12/25 06:19:42;;;;;;;6.25;2.10;;;11.20;99.90;;;;;;4984461;28;20593;-83
2023/12/25 06:22:28;;;;;;;11.57;2.22;;;11.20;99.90;;;;;;4987124;28;20209;-82
2023/12/25 06:25:00;;;;;;;11.05;2.00;;;11.10;99.90;;;;;;4988951;28;20286;-83
2023/12/25 06:27:30;;;;;;;6.95;1.90;;;11.20;99.90;;;;;;5001496;28;20220;-82
2023/12/25 06:30:04;;;;;;;12.68;4.90;;;11.00;99.90;;;;;;4993565;28;20257;-83
2023/12/25 06:32:31;;;;;;;10.57;3.17;;;11.10;99.90;;;;;;4988188;28;20271;-83
2023/12/25 06:34:58;;;;;;;8.82;2.05;;;11.00;99.90;;;;;;4986750;28;20233;-83
2023/12/25 06:37:31;;;;;;;4.78;2.03;;;11.00;99.90;;;;;;4988349;28;20665;-82
2023/12/25 06:39:59;;;;;;;6.60;1.90;;;11.00;99.90;;;;;;4998161;28;20214;-83
2023/12/25 06:42:27;;;;;;;14.35;2.42;;;11.00;99.90;;;;;;4993342;28;20202;-82
2023/12/25 06:44:57;;;;;;;5.38;2.80;;;11.10;99.90;;;;;;4990466;28;20755;-82
2023/12/25 06:47:24;;;;;;;8.43;2.20;;;10.90;99.90;;;;;;4988285;28;20238;-82
2023/12/25 06:49:52;;;;;;;5.82;2.65;;;11.10;99.90;;;;;;4990604;28;20237;-82
2023/12/25 06:52:29;;;;;;;8.90;2.60;;;11.10;99.90;;;;;;4991670;28;20298;-82
2023/12/25 06:55:02;;;;;;;4.95;1.92;;;11.20;99.90;;;;;;4989424;28;20245;-81
2023/12/25 06:57:31;;;;;;;6.40;2.00;;;11.10;99.90;;;;;;4987060;28;20209;-83
2023/12/25 07:00:00;;;;;;;6.18;1.90;;;11.10;99.90;;;;;;4985018;28;20238;-83
2023/12/25 07:02:36;;;;;;;8.43;2.20;;;11.10;99.90;;;;;;4978345;28;20205;-83
2023/12/25 07:05:10;;;;;;;6.45;2.22;;;10.80;99.90;;;;;;4988135;28;20212;-83
2023/12/25 07:07:39;;;;;;;7.28;2.05;;;11.10;99.90;;;;;;4980545;28;20199;-81
2023/12/25 07:10:11;;;;;;;2.80;1.90;;;11.00;99.90;;;;;;4990907;28;20223;-84
2023/12/25 07:12:38;;;;;;;6.25;2.08;;;11.00;99.90;;;;;;4978843;28;20206;-83
2023/12/25 07:15:06;;;;;;;4.85;2.60;;;10.90;99.90;;;;;;4981622;28;20276;-83
2023/12/25 07:17:34;;;;;;;8.02;2.13;;;10.90;99.90;;;;;;4984720;28;20274;-83
2023/12/25 07:20:04;;;;;;;8.25;2.63;;;10.90;99.90;;;;;;4986224;28;20230;-83
2023/12/25 07:22:32;;;;;;;11.77;3.13;;;11.00;99.90;;;;;;4985181;28;20269;-83
2023/12/25 07:25:05;;;;;;;9.40;2.35;;;11.00;99.90;;;;;;4979553;28;20207;-83
2023/12/25 07:27:36;;;;;;;6.82;1.92;;;11.00;99.90;;;;;;4986370;28;20592;-83
2023/12/25 07:30:09;;;;;;;7.85;2.10;;;11.00;99.90;;;;;;4987141;28;20227;-83
2023/12/25 07:32:47;;;;;;;9.48;2.70;;;11.00;99.90;;;;;;4992256;28;20201;-83
2023/12/25 07:35:23;;;;;;;5.70;1.98;;;11.00;99.90;;;;;;4990286;28;20226;-83
2023/12/25 07:37:54;;;;;;;8.02;2.17;;;10.90;99.90;;;;;;4992610;28;20216;-84
2023/12/25 07:40:25;;;;;;;7.05;1.95;;;11.00;99.90;;;;;;4989700;28;20253;-82
2023/12/25 07:42:53;;;;;;;9.15;2.45;;;11.00;99.90;;;;;;4988775;28;20221;-82
2023/12/25 07:45:21;;;;;;;12.45;2.05;;;11.00;99.90;;;;;;4989114;28;20203;-82
2023/12/25 07:47:51;;;;;;;6.82;2.90;;;11.00;99.90;;;;;;4987990;28;20238;-81
2023/12/25 07:50:18;;;;;;;8.70;2.92;;;11.00;99.90;;;;;;4987511;28;20753;-83
2023/12/25 07:52:45;;;;;;;9.63;3.17;;;11.00;99.90;;;;;;4988438;28;20210;-82
2023/12/25 07:55:13;;;;;;;8.23;3.42;;;11.00;99.90;;;;;;4976915;28;20309;-83
2023/12/25 07:57:40;;;;;;;7.22;3.58;;;11.10;99.90;;;;;;4989023;28;20198;-83
2023/12/25 08:00:10;;;;;;;8.90;3.22;;;11.10;99.90;;;;;;4985774;28;20607;-83
2023/12/25 08:02:37;;;;;;;9.60;2.92;;;11.00;99.90;;;;;;4980408;28;20207;-83
2023/12/25 08:05:05;;;;;;;11.27;3.45;;;10.90;99.90;;;;;;4986089;28;20238;-83
2023/12/25 08:07:32;;;;;;;7.57;3.03;;;11.00;99.90;;;;;;4991872;28;20258;-83
2023/12/25 08:09:59;;;;;;;14.40;3.75;;;10.90;99.90;;;;;;4996420;28;20226;-83
2023/12/25 08:12:26;;;;;;;13.32;2.70;;;10.90;99.90;;;;;;4994630;28;20210;-84
2023/12/25 08:14:52;;;;;;;8.15;2.42;;;10.90;99.90;;;;;;4995391;28;20211;-83
2023/12/25 08:17:21;;;;;;;7.88;1.80;;;11.00;99.90;;;;;;4994717;28;20222;-83
2023/12/25 08:19:48;;;;;;;10.30;2.95;;;10.90;99.90;;;;;;4996290;28;20274;-84
2023/12/25 08:22:15;;;;;;;10.60;2.72;;;10.90;99.90;;;;;;4990323;28;20230;-83
2023/12/25 08:24:43;;;;;;;7.07;2.20;;;10.90;99.90;;;;;;4985232;28;20233;-82
2023/12/25 08:27:10;;;;;;;9.05;2.42;;;10.90;99.90;;;;;;4986217;28;20207;-82
2023/12/25 08:29:37;;;;;;;8.25;2.20;;;10.90;99.90;;;;;;4995284;28;20211;-82
2023/12/25 08:32:04;;;;;;;7.82;2.40;;;11.00;99.90;;;;;;4999333;28;20203;-84
2023/12/25 08:34:36;;;;;;;7.20;2.58;;;11.00;99.90;;;;;;4989456;28;20229;-83
2023/12/25 08:37:03;;;;;;;7.57;2.60;;;11.10;99.90;;;;;;4988006;28;20230;-83
2023/12/25 08:39:30;;;;;;;7.65;3.03;;;11.20;99.90;;;;;;4988794;28;20562;-82
2023/12/25 08:42:00;;;;;;;6.22;1.92;;;11.30;99.90;;;;;;4988044;28;20209;-83
2023/12/25 08:44:28;;;;;;;4.90;2.67;;;11.30;99.90;;;;;;4989306;28;20273;-84
2023/12/25 08:46:55;;;;;;;5.45;2.85;;;11.30;99.90;;;;;;4987324;28;20222;-83
2023/12/25 08:49:22;;;;;;;6.63;2.15;;;11.30;99.90;;;;;;4996003;28;20218;-83
2023/12/25 08:51:50;;;;;;;8.15;2.70;;;11.30;99.90;;;;;;4994385;28;20225;-83
2023/12/25 08:54:17;;;;;;;3.70;2.53;;;11.20;99.90;;;;;;4992022;28;20207;-83
2023/12/25 08:56:45;;;;;;;11.63;2.67;;;11.10;99.90;;;;;;4988297;28;20218;-83
2023/12/25 08:59:12;;;;;;;16.92;2.50;;;11.30;99.90;;;;;;4997986;28;20215;-84
2023/12/25 09:01:42;;;;;;;6.57;1.77;;;11.40;99.90;;;;;;4997886;28;20194;-83
2023/12/25 09:04:13;;;;;;;10.82;2.75;;;11.30;99.90;;;;;;4992715;28;20217;-85
2023/12/25 09:06:53;;;;;;;11.63;2.70;;;11.20;99.90;;;;;;4993310;28;20203;-83
2023/12/25 09:09:21;;;;;;;6.18;2.90;;;11.30;99.90;;;;;;4992515;28;20231;-83
2023/12/25 09:14:31;;;;;;;12.60;3.22;;;11.20;99.90;;;;;;4987671;28;20186;-84
2023/12/25 09:17:17;;;;;;;9.20;2.00;;;11.30;99.90;;;;;;4998363;28;20236;-83
2023/12/25 09:22:31;;;;;;;9.05;2.95;;;11.30;99.90;;;;;;4993576;28;20182;-83
2023/12/25 09:24:58;;;;;;;9.45;3.05;;;11.30;99.90;;;;;;4997383;28;20234;-83
2023/12/25 09:27:25;;;;;;;12.07;2.60;;;11.30;99.90;;;;;;4998093;28;20230;-83
2023/12/25 09:29:53;;;;;;;9.27;3.33;;;11.40;99.90;;;;;;4998716;28;20237;-83
2023/12/25 09:32:20;;;;;;;15.93;2.55;;;11.50;99.90;;;;;;5003451;28;20198;-84
2023/12/25 09:34:47;;;;;;;7.05;2.63;;;11.50;99.90;;;;;;4998834;28;20191;-83
2023/12/25 09:37:15;;;;;;;11.38;3.65;;;11.50;99.90;;;;;;4991961;28;20277;-84
2023/12/25 09:39:43;;;;;;;12.77;3.00;;;11.40;99.90;;;;;;4978883;28;20219;-84
2023/12/25 09:42:12;;;;;;;6.30;2.17;;;11.40;99.90;;;;;;4991964;28;20242;-84
2023/12/25 09:44:39;;;;;;;12.88;2.47;;;11.40;99.90;;;;;;4981536;28;20202;-83
2023/12/25 09:47:08;;;;;;;10.23;3.22;;;11.30;99.90;;;;;;4986528;28;20210;-83
2023/12/25 09:49:37;;;;;;;13.27;3.00;;;11.20;99.90;;;;;;4989151;28;20230;-82
2023/12/25 09:52:05;;;;;;;11.23;3.08;;;11.10;99.90;;;;;;4989140;28;20233;-83
2023/12/25 09:54:32;;;;;;;9.27;2.45;;;11.30;99.90;;;;;;4988226;28;20194;-83
2023/12/25 09:57:02;;;;;;;9.18;3.00;;;11.40;99.90;;;;;;4990485;28;20291;-83
2023/12/25 09:59:31;;;;;;;12.38;2.50;;;11.50;99.90;;;;;;4989618;28;20599;-83
2023/12/25 10:02:01;;;;;;;11.68;3.40;;;11.60;99.90;;;;;;4993044;28;20226;-82
2023/12/25 10:04:30;;;;;;;6.20;2.10;;;12.10;99.90;;;;;;4997756;28;20183;-81
2023/12/25 10:06:57;;;;;;;12.50;3.10;;;12.20;99.90;;;;;;4997136;28;20194;-83
2023/12/25 10:09:25;;;;;;;9.63;3.25;;;12.40;99.90;;;;;;5004641;28;20214;-83
2023/12/25 10:11:54;;;;;;;8.30;2.90;;;12.60;99.90;;;;;;4997691;28;20218;-82
2023/12/25 10:14:22;;;;;;;5.20;1.85;;;12.70;99.90;;;;;;4989582;28;20187;-83
2023/12/25 10:16:51;;;;;;;8.23;2.38;;;12.80;99.90;;;;;;4997132;28;20222;-82
2023/12/25 10:19:18;;;;;;;9.40;2.60;;;13.00;99.90;;;;;;4997123;28;20214;-83
2023/12/25 10:21:46;;;;;;;5.93;1.48;;;12.70;99.90;;;;;;4988229;28;20191;-83
2023/12/25 10:24:15;;;;;;;7.40;2.90;;;12.70;99.90;;;;;;4989545;28;20191;-83
2023/12/25 10:26:44;;;;;;;4.78;1.95;;;13.00;99.90;;;;;;4990351;28;20195;-83
2023/12/25 10:29:12;;;;;;;8.38;2.05;;;13.30;99.90;;;;;;4991101;28;20213;-82
2023/12/25 10:31:43;;;;;;;14.70;3.55;;;13.30;99.90;;;;;;4993778;28;20199;-83
2023/12/25 10:34:10;;;;;;;9.55;3.22;;;13.20;99.90;;;;;;4983626;28;20836;-82
2023/12/25 10:36:39;;;;;;;10.98;3.63;;;13.20;99.90;;;;;;4977614;28;20222;-82
2023/12/25 10:39:07;;;;;;;8.88;3.17;;;13.10;99.90;;;;;;4991153;28;20213;-83
2023/12/25 10:41:35;;;;;;;9.32;3.33;;;13.10;99.90;;;;;;4985049;28;20628;-83
2023/12/25 10:44:03;;;;;;;6.60;2.22;;;13.10;99.90;;;;;;4986054;28;20230;-83
2023/12/25 10:46:37;;;;;;;14.82;3.35;;;12.70;99.90;;;;;;4978239;28;20207;-82
2023/12/25 10:49:06;;;;;;;30.25;12.80;;;12.70;99.90;;;;;;4989124;28;20278;-83
2023/12/25 10:51:40;;;;;;;5.88;2.80;;;12.60;99.90;;;;;;4989890;28;20230;-82
2023/12/25 10:54:13;;;;;;;8.60;3.22;;;12.90;99.90;;;;;;4990025;28;20238;-84
2023/12/25 10:56:42;;;;;;;5.85;2.28;;;13.00;99.90;;;;;;4985798;28;20241;-84
2023/12/25 10:59:20;;;;;;;10.77;4.10;;;13.00;99.90;;;;;;4984704;28;20298;-83
2023/12/25 11:01:52;;;;;;;13.18;6.50;;;13.00;99.90;;;;;;4982606;28;20431;-83
2023/12/25 11:04:23;;;;;;;7.90;2.75;;;12.90;99.90;;;;;;4984206;28;20203;-83
2023/12/25 11:06:50;;;;;;;8.80;3.40;;;12.80;99.90;;;;;;4982763;28;20218;-84
2023/12/25 11:09:22;;;;;;;11.25;3.70;;;12.60;99.90;;;;;;4983768;28;20350;-84
2023/12/25 11:11:49;;;;;;;10.65;2.83;;;12.60;99.90;;;;;;4983270;28;20211;-84
2023/12/25 11:14:17;;;;;;;7.30;2.08;;;12.80;99.90;;;;;;4983561;28;20206;-84
2023/12/25 11:16:44;;;;;;;9.70;3.90;;;12.90;99.90;;;;;;4983194;28;20222;-83
2023/12/25 11:19:11;;;;;;;7.00;3.03;;;12.70;99.90;;;;;;4984602;28;20214;-83
2023/12/25 11:21:39;;;;;;;5.25;1.83;;;12.70;99.90;;;;;;4982254;28;20187;-83
2023/12/25 11:24:18;;;;;;;3.58;1.48;;;12.70;99.90;;;;;;4977795;28;20205;-82
2023/12/25 11:26:46;;;;;;;7.28;2.88;;;12.50;99.90;;;;;;4985200;28;20266;-83
2023/12/25 11:29:18;;;;;;;6.22;2.38;;;12.50;99.90;;;;;;4991845;28;20203;-83
2023/12/25 11:31:47;;;;;;;5.32;1.90;;;12.50;99.90;;;;;;4989712;28;20644;-84
2023/12/25 11:34:32;;;;;;;9.35;2.60;;;12.30;99.90;;;;;;4984352;28;20310;-84
2023/12/25 11:37:04;;;;;;;4.63;1.90;;;12.20;99.90;;;;;;4984979;28;20309;-83
2023/12/25 11:39:31;;;;;;;12.18;2.85;;;12.20;99.90;;;;;;4985084;28;20586;-83
2023/12/25 11:42:06;;;;;;;11.40;3.55;;;12.20;99.90;;;;;;4983910;28;20620;-84
2023/12/25 11:44:34;;;;;;;11.77;4.55;;;12.20;99.90;;;;;;4986897;28;20307;-84
2023/12/25 11:47:07;;;;;;;8.35;2.35;;;12.00;99.90;;;;;;4984687;28;20206;-84
2023/12/25 11:49:36;;;;;;;9.13;2.63;;;12.00;99.90;;;;;;4986299;28;20243;-84
2023/12/25 11:52:08;;;;;;;12.05;2.10;;;11.90;99.90;;;;;;4989985;28;20195;-84
2023/12/25 11:54:37;;;;;;;7.70;3.75;;;11.80;99.90;;;;;;4986441;28;20203;-83
2023/12/25 11:57:17;;;;;;;7.15;2.13;;;11.80;99.90;;;;;;4975826;28;20257;-82
2023/12/25 11:59:46;;;;;;;6.50;2.30;;;11.70;99.90;;;;;;4990704;28;20616;-84
2023/12/25 12:02:13;;;;;;;9.00;2.30;;;11.80;99.90;;;;;;4991660;28;20238;-84
2023/12/25 12:04:40;;;;;;;6.32;2.17;;;11.80;99.90;;;;;;4986607;28;20210;-84
2023/12/25 12:07:09;;;;;;;4.95;2.85;;;11.80;99.90;;;;;;4985002;28;20207;-84
2023/12/25 12:09:36;;;;;;;6.25;3.10;;;11.80;99.90;;;;;;4992982;28;20222;-84
2023/12/25 12:12:04;;;;;;;7.65;2.80;;;12.00;99.90;;;;;;4991462;28;20213;-83
2023/12/25 12:14:32;;;;;;;9.88;3.05;;;12.00;99.90;;;;;;4986476;28;20226;-84
2023/12/25 12:16:59;;;;;;;9.77;2.40;;;12.00;99.90;;;;;;4990111;28;20230;-83
2023/12/25 12:19:26;;;;;;;11.20;2.80;;;12.00;99.90;;;;;;4989802;28;20234;-84
2023/12/25 12:21:53;;;;;;;11.23;3.03;;;12.00;99.90;;;;;;4988191;28;20203;-84
2023/12/25 12:24:29;;;;;;;10.52;2.55;;;12.00;99.90;;;;;;4990808;28;20681;-82
2023/12/25 12:27:04;;;;;;;11.45;3.03;;;11.80;99.90;;;;;;4991612;28;20203;-83
2023/12/25 12:29:31;;;;;;;9.15;4.00;;;11.80;99.90;;;;;;4992890;28;20281;-83
2023/12/25 12:31:59;;;;;;;12.18;3.67;;;11.80;99.90;;;;;;4998186;28;20199;-83
2023/12/25 12:34:26;;;;;;;6.32;2.80;;;11.80;99.90;;;;;;4998901;28;20195;-83
2023/12/25 12:37:00;;;;;;;10.20;2.42;;;11.80;99.90;;;;;;4998864;28;20241;-83
2023/12/25 12:39:29;;;;;;;7.07;2.97;;;11.70;99.90;;;;;;4992614;28;20256;-83
2023/12/25 12:41:56;;;;;;;7.78;3.03;;;11.80;99.90;;;;;;4990746;28;20312;-83
2023/12/25 12:44:24;;;;;;;13.02;4.05;;;11.90;99.90;;;;;;4984423;28;20215;-82
2023/12/25 12:46:52;;;;;;;7.43;2.30;;;11.90;99.90;;;;;;4996696;28;20210;-81
2023/12/25 12:49:20;;;;;;;9.60;3.53;;;11.70;99.90;;;;;;4993173;28;20286;-85
2023/12/25 12:51:47;;;;;;;6.85;2.33;;;11.60;99.90;;;;;;4991677;28;20686;-83
2023/12/25 12:54:17;;;;;;;9.25;4.80;;;11.40;99.90;;;;;;4990663;28;20237;-82
2023/12/25 12:56:50;;;;;;;9.27;2.83;;;11.50;99.90;;;;;;4987851;28;20678;-84
2023/12/25 12:59:17;;;;;;;13.43;3.10;;;11.50;99.90;;;;;;4989909;28;20258;-84
2023/12/25 13:01:44;;;;;;;12.00;5.03;;;11.50;99.90;;;;;;4988781;28;20225;-82
2023/12/25 13:04:11;;;;;;;6.10;2.35;;;11.30;99.90;;;;;;4988461;28;20308;-83
2023/12/25 13:06:38;;;;;;;10.95;2.50;;;11.40;99.90;;;;;;4992173;28;20209;-84
2023/12/25 13:09:10;;;;;;;6.32;3.35;;;11.40;99.90;;;;;;4988739;28;20215;-84
2023/12/25 13:11:37;;;;;;;14.57;3.72;;;11.40;99.90;;;;;;4990523;28;20198;-85
2023/12/25 13:14:19;;;;;;;7.78;2.80;;;11.20;99.90;;;;;;4987589;28;20210;-82